Time;durP1;ratioP1;P1;durP2;ratioP2;P2;SDS_P1;SDS_P2;PMS_P1;PMS_P2;Temp;Humidity;BMP_temperature;BMP_pressure;BME280_temperature;BME280_humidity;BME280_pressure;Samples;Min_cycle;Max_cycle;Signal;HPM_P1;HPM_P2
2021/11/15 00:01:47;;;;;;;3.47;0.60;;;20.90;43.00;;;;;;4968899;28;20497;-68
2021/11/15 00:04:16;;;;;;;3.42;1.10;;;20.90;41.00;;;;;;4961809;28;20030;-68
2021/11/15 00:06:43;;;;;;;2.63;0.98;;;20.90;41.70;;;;;;4969447;28;20022;-69
2021/11/15 00:09:11;;;;;;;1.63;1.10;;;21.10;41.70;;;;;;4967953;28;20451;-68
2021/11/15 00:11:38;;;;;;;1.40;0.73;;;20.90;41.80;;;;;;4966135;28;20564;-69
2021/11/15 00:14:05;;;;;;;1.67;0.80;;;20.90;40.50;;;;;;4967728;28;20031;-69
2021/11/15 00:16:33;;;;;;;3.78;0.80;;;21.20;41.40;;;;;;4967592;28;20076;-69
2021/11/15 00:19:00;;;;;;;1.38;0.80;;;21.70;41.50;;;;;;4966061;28;20047;-69
2021/11/15 00:21:27;;;;;;;1.25;0.57;;;22.10;40.30;;;;;;4965706;28;20030;-73
2021/11/15 00:23:55;;;;;;;3.33;0.60;;;22.20;40.60;;;;;;4967515;28;20130;-68
2021/11/15 00:26:23;;;;;;;1.20;0.47;;;22.30;38.90;;;;;;4968424;28;20733;-69
2021/11/15 00:28:50;;;;;;;2.28;0.70;;;22.40;41.40;;;;;;4970454;28;20300;-71
2021/11/15 00:31:19;;;;;;;0.98;0.55;;;22.30;37.80;;;;;;4969420;28;20023;-69
2021/11/15 00:33:46;;;;;;;3.47;0.77;;;21.80;38.60;;;;;;4969564;28;20065;-69
2021/11/15 00:36:13;;;;;;;1.55;0.73;;;21.80;38.90;;;;;;4965602;28;20023;-69
2021/11/15 00:38:40;;;;;;;1.80;0.57;;;21.80;37.60;;;;;;4967766;28;20054;-69
2021/11/15 00:41:07;;;;;;;7.03;1.60;;;21.70;37.80;;;;;;4970987;28;20089;-70
2021/11/15 00:43:34;;;;;;;3.80;0.80;;;22.00;38.20;;;;;;4972146;28;20019;-69
2021/11/15 00:46:01;;;;;;;8.13;1.20;;;21.90;37.80;;;;;;4970377;28;20489;-71
2021/11/15 00:48:28;;;;;;;5.93;1.20;;;22.30;39.00;;;;;;4965128;28;20165;-69
2021/11/15 00:50:56;;;;;;;3.65;1.00;;;22.80;37.90;;;;;;4970264;28;20080;-68
2021/11/15 00:53:23;;;;;;;2.67;1.25;;;23.10;37.60;;;;;;4973010;28;20023;-67
2021/11/15 00:55:50;;;;;;;3.53;1.20;;;23.30;37.20;;;;;;4989100;28;20018;-68
2021/11/15 00:58:17;;;;;;;1.92;0.68;;;23.40;37.90;;;;;;4989240;28;20515;-69
2021/11/15 01:00:45;;;;;;;0.80;0.45;;;23.30;38.60;;;;;;4989525;28;20030;-69
2021/11/15 01:03:13;;;;;;;1.95;0.73;;;23.10;37.00;;;;;;4972356;28;20054;-68
2021/11/15 01:05:47;;;;;;;1.65;0.73;;;23.00;37.80;;;;;;4996186;28;20474;-69
2021/11/15 01:08:16;;;;;;;14.10;1.80;;;23.00;38.40;;;;;;4989367;28;20050;-73
2021/11/15 01:10:44;;;;;;;14.65;1.60;;;23.10;36.90;;;;;;4988768;28;20023;-68
2021/11/15 01:13:12;;;;;;;1.42;0.65;;;23.00;38.40;;;;;;4989384;28;20022;-68
2021/11/15 01:15:39;;;;;;;2.40;0.60;;;23.10;38.60;;;;;;4979263;28;20038;-69
2021/11/15 01:18:08;;;;;;;6.43;1.17;;;23.30;37.80;;;;;;4984989;28;20081;-72
2021/11/15 01:20:35;;;;;;;3.97;0.73;;;23.00;37.10;;;;;;4989404;28;20054;-70
2021/11/15 01:23:03;;;;;;;11.63;1.67;;;23.00;38.00;;;;;;4989362;28;20022;-70
2021/11/15 01:25:31;;;;;;;3.33;1.25;;;23.20;36.90;;;;;;4989467;28;20030;-68
2021/11/15 01:27:58;;;;;;;3.30;0.73;;;23.20;40.70;;;;;;4984670;28;20105;-73
2021/11/15 01:30:26;;;;;;;4.00;1.05;;;23.30;38.50;;;;;;4989463;28;20080;-73
2021/11/15 01:32:53;;;;;;;3.95;0.93;;;23.30;38.00;;;;;;4985547;28;20035;-70
2021/11/15 01:35:22;;;;;;;2.28;0.95;;;23.10;38.50;;;;;;4986007;28;20430;-73
2021/11/15 01:37:49;;;;;;;5.18;1.63;;;23.30;37.40;;;;;;4989698;28;20026;-69
2021/11/15 01:40:20;;;;;;;1.48;1.00;;;23.50;39.40;;;;;;4996003;28;20026;-70
2021/11/15 01:42:47;;;;;;;2.20;0.77;;;23.30;37.10;;;;;;4989029;28;20092;-68
2021/11/15 01:45:22;;;;;;;2.60;1.20;;;23.20;37.90;;;;;;4988751;28;20346;-69
2021/11/15 01:47:55;;;;;;;2.28;0.82;;;23.90;38.60;;;;;;4971890;28;20022;-68
2021/11/15 01:50:22;;;;;;;5.35;0.85;;;24.00;37.60;;;;;;4982368;28;20591;-75
2021/11/15 01:52:51;;;;;;;5.10;0.98;;;23.50;37.70;;;;;;4988480;28;20053;-73
2021/11/15 01:55:19;;;;;;;3.03;0.70;;;22.70;38.80;;;;;;4989032;28;20220;-73
2021/11/15 01:57:49;;;;;;;3.67;1.38;;;22.80;40.10;;;;;;4995851;28;20163;-72
2021/11/15 02:00:25;;;;;;;4.03;0.88;;;23.10;38.90;;;;;;4989315;28;20415;-71
2021/11/15 02:02:52;;;;;;;2.00;0.73;;;23.50;38.70;;;;;;4977698;28;20209;-68
2021/11/15 02:05:19;;;;;;;2.13;0.75;;;23.00;38.60;;;;;;4988235;28;20027;-70
2021/11/15 02:07:46;;;;;;;3.05;0.70;;;22.90;39.30;;;;;;4989414;28;20037;-70
2021/11/15 02:10:14;;;;;;;3.13;0.80;;;23.20;40.50;;;;;;4992399;28;20538;-70
2021/11/15 02:12:41;;;;;;;1.63;0.45;;;23.10;38.20;;;;;;4992787;28;20061;-73
2021/11/15 02:15:13;;;;;;;3.78;0.90;;;23.30;39.20;;;;;;4988773;28;20055;-69
2021/11/15 02:17:45;;;;;;;2.60;1.10;;;23.40;39.70;;;;;;4994167;28;20026;-70
2021/11/15 02:20:25;;;;;;;2.17;0.95;;;23.40;40.20;;;;;;4988683;28;20230;-70
2021/11/15 02:22:55;;;;;;;1.88;0.70;;;23.80;38.60;;;;;;4993017;28;20030;-71
2021/11/15 02:25:25;;;;;;;8.65;1.70;;;23.40;38.90;;;;;;4992621;28;20022;-70
2021/11/15 02:27:53;;;;;;;4.50;0.90;;;23.80;38.80;;;;;;4996043;28;20493;-71
2021/11/15 02:30:25;;;;;;;3.90;0.70;;;23.00;38.80;;;;;;4990258;28;20022;-73
2021/11/15 02:32:53;;;;;;;4.30;0.70;;;23.10;39.20;;;;;;4995036;28;20026;-71
2021/11/15 02:35:21;;;;;;;3.13;0.77;;;23.30;39.40;;;;;;4991315;28;20105;-71
2021/11/15 02:37:48;;;;;;;2.53;0.82;;;23.70;39.40;;;;;;4995635;28;20057;-72
2021/11/15 02:40:20;;;;;;;3.17;1.00;;;23.40;38.80;;;;;;4988648;28;20070;-74
2021/11/15 02:42:48;;;;;;;1.65;0.65;;;23.10;40.00;;;;;;4995894;28;20056;-71
2021/11/15 02:45:18;;;;;;;2.47;0.70;;;23.10;40.50;;;;;;4994073;28;20030;-70
2021/11/15 02:47:46;;;;;;;2.60;0.73;;;23.10;40.10;;;;;;4996600;28;20393;-72
2021/11/15 02:50:21;;;;;;;2.13;0.65;;;23.20;40.60;;;;;;4990686;28;20030;-70
2021/11/15 02:52:58;;;;;;;4.30;1.52;;;23.40;40.30;;;;;;4988773;28;20166;-74
2021/11/15 02:55:26;;;;;;;2.53;1.02;;;23.00;39.90;;;;;;4975455;28;20081;-71
2021/11/15 02:58:01;;;;;;;3.07;0.50;;;23.20;39.70;;;;;;4460182;28;10001813;-72
2021/11/15 03:00:39;;;;;;;3.95;1.40;;;23.30;39.40;;;;;;4981067;28;20029;-72
2021/11/15 03:03:07;;;;;;;1.73;0.90;;;23.40;39.80;;;;;;4971012;28;20213;-72
2021/11/15 03:05:37;;;;;;;3.05;1.10;;;23.60;41.00;;;;;;4987696;28;20037;-72
2021/11/15 03:08:05;;;;;;;2.75;0.82;;;23.70;40.40;;;;;;4984507;28;20037;-71
2021/11/15 03:10:34;;;;;;;1.75;0.75;;;23.70;38.60;;;;;;4999913;28;20512;-71
2021/11/15 03:13:04;;;;;;;4.85;0.80;;;23.40;39.40;;;;;;4986128;28;20018;-71
2021/11/15 03:15:34;;;;;;;2.72;0.95;;;23.30;40.00;;;;;;4985391;28;20586;-71
2021/11/15 03:18:04;;;;;;;1.77;0.50;;;23.50;39.60;;;;;;4984982;28;20099;-68
2021/11/15 03:20:35;;;;;;;3.30;0.80;;;23.90;40.00;;;;;;4989318;28;20119;-69
2021/11/15 03:23:07;;;;;;;2.70;0.60;;;24.00;40.60;;;;;;4987295;28;20048;-73
2021/11/15 03:25:34;;;;;;;1.92;0.80;;;24.20;38.80;;;;;;4968419;28;20553;-69
2021/11/15 03:28:02;;;;;;;2.20;0.65;;;23.70;38.90;;;;;;4984845;28;20124;-72
2021/11/15 03:30:29;;;;;;;3.28;0.80;;;23.10;40.00;;;;;;4989244;28;20022;-71
2021/11/15 03:32:56;;;;;;;3.63;0.80;;;23.30;41.60;;;;;;4987536;28;20034;-72
2021/11/15 03:35:24;;;;;;;1.65;0.80;;;23.20;40.20;;;;;;4985037;28;20037;-70
2021/11/15 03:37:51;;;;;;;1.45;0.63;;;22.60;40.90;;;;;;4986101;28;20022;-69
2021/11/15 03:40:24;;;;;;;2.28;0.77;;;22.70;41.20;;;;;;4983586;28;21446;-70
2021/11/15 03:42:58;;;;;;;2.53;0.52;;;23.30;42.40;;;;;;4987221;28;20374;-73
2021/11/15 03:45:26;;;;;;;2.60;0.90;;;23.30;40.40;;;;;;4987339;28;20064;-70
2021/11/15 03:47:54;;;;;;;1.50;0.88;;;23.40;40.60;;;;;;4967671;28;20033;-72
2021/11/15 03:50:21;;;;;;;2.05;1.00;;;23.30;40.30;;;;;;4983957;28;20329;-70
2021/11/15 03:52:49;;;;;;;1.67;0.50;;;22.80;41.90;;;;;;4984869;28;20096;-70
2021/11/15 03:55:18;;;;;;;2.75;0.82;;;23.40;41.80;;;;;;4982259;28;20062;-68
2021/11/15 03:57:46;;;;;;;1.00;0.45;;;22.90;41.20;;;;;;4985383;28;20027;-68
2021/11/15 04:00:18;;;;;;;5.90;0.85;;;22.10;42.40;;;;;;4995346;28;20042;-70
2021/11/15 04:02:51;;;;;;;2.05;0.82;;;22.20;43.00;;;;;;4986269;28;20041;-68
2021/11/15 04:05:27;;;;;;;1.10;0.57;;;23.00;41.90;;;;;;4992443;28;20097;-69
2021/11/15 04:07:56;;;;;;;4.47;1.10;;;22.90;40.90;;;;;;4983977;28;20037;-68
2021/11/15 04:10:35;;;;;;;1.85;0.52;;;22.40;41.90;;;;;;4994077;28;20104;-70
2021/11/15 04:13:08;;;;;;;1.38;0.50;;;22.60;41.30;;;;;;4988788;28;20019;-68
2021/11/15 04:15:36;;;;;;;4.50;1.13;;;22.60;42.10;;;;;;4975011;28;20032;-69
2021/11/15 04:18:04;;;;;;;2.92;1.08;;;23.10;42.00;;;;;;4984924;28;20034;-69
2021/11/15 04:20:32;;;;;;;2.58;0.80;;;23.20;41.00;;;;;;4991080;28;20476;-70
2021/11/15 04:23:00;;;;;;;2.70;0.82;;;23.00;41.90;;;;;;4986748;28;20034;-69
2021/11/15 04:25:27;;;;;;;2.03;1.13;;;23.20;42.10;;;;;;4983559;28;20113;-70
2021/11/15 04:27:54;;;;;;;3.13;1.20;;;23.80;40.10;;;;;;4978948;28;20034;-69
2021/11/15 04:30:21;;;;;;;3.28;1.40;;;23.90;42.30;;;;;;4982799;28;20030;-69
2021/11/15 04:32:49;;;;;;;3.15;0.85;;;23.90;40.00;;;;;;4981572;28;20026;-68
2021/11/15 04:35:18;;;;;;;2.75;0.70;;;24.00;40.60;;;;;;4979699;28;20426;-68
2021/11/15 04:37:46;;;;;;;4.55;1.00;;;24.20;41.40;;;;;;4980723;28;20014;-67
2021/11/15 04:40:14;;;;;;;2.40;0.77;;;24.60;39.00;;;;;;4981448;28;20572;-68
2021/11/15 04:42:42;;;;;;;4.90;1.27;;;24.80;39.00;;;;;;4979563;28;20026;-70
2021/11/15 04:45:10;;;;;;;4.90;1.10;;;24.60;38.60;;;;;;4975462;28;20113;-63
2021/11/15 04:47:38;;;;;;;2.20;1.13;;;24.80;39.10;;;;;;4984335;28;20026;-67
2021/11/15 04:50:06;;;;;;;3.92;1.10;;;24.80;39.40;;;;;;4964822;28;20101;-65
2021/11/15 04:52:34;;;;;;;3.83;0.80;;;24.20;40.30;;;;;;4971973;28;20437;-70
2021/11/15 04:55:01;;;;;;;1.98;0.63;;;24.00;40.80;;;;;;4977276;28;20580;-77
2021/11/15 04:57:28;;;;;;;1.88;0.93;;;24.40;41.80;;;;;;4972318;28;20081;-66
2021/11/15 04:59:59;;;;;;;2.47;1.25;;;24.60;39.60;;;;;;4980112;28;20026;-70
2021/11/15 05:02:27;;;;;;;2.63;0.90;;;24.10;39.60;;;;;;4979552;28;20413;-66
2021/11/15 05:04:55;;;;;;;2.90;0.80;;;23.90;40.40;;;;;;4979253;28;20395;-68
2021/11/15 05:07:22;;;;;;;1.80;0.60;;;23.30;41.30;;;;;;4977192;28;20161;-68
2021/11/15 05:09:49;;;;;;;2.25;0.63;;;23.70;41.80;;;;;;4982335;28;20030;-74
2021/11/15 05:12:16;;;;;;;3.20;0.88;;;23.80;40.50;;;;;;4979799;28;20054;-68
2021/11/15 05:14:43;;;;;;;4.47;0.95;;;23.20;41.20;;;;;;4979443;28;20022;-69
2021/11/15 05:17:10;;;;;;;3.35;0.82;;;23.10;42.90;;;;;;4974997;28;20026;-68
2021/11/15 05:19:37;;;;;;;2.28;0.80;;;23.30;41.40;;;;;;4976696;28;20084;-68
2021/11/15 05:22:05;;;;;;;3.85;0.95;;;23.10;41.80;;;;;;4981075;28;20034;-72
2021/11/15 05:24:32;;;;;;;4.57;1.67;;;23.10;41.50;;;;;;4963293;28;20496;-68
2021/11/15 05:26:59;;;;;;;2.17;0.73;;;23.30;41.50;;;;;;4979575;28;20033;-67
2021/11/15 05:29:26;;;;;;;2.90;1.15;;;23.00;41.50;;;;;;4976765;28;20015;-68
2021/11/15 05:31:53;;;;;;;2.67;1.00;;;22.70;42.50;;;;;;4978441;28;20401;-73
2021/11/15 05:34:20;;;;;;;2.53;1.05;;;23.10;43.10;;;;;;4979838;28;20541;-71
2021/11/15 05:36:47;;;;;;;2.22;0.80;;;22.90;41.80;;;;;;4982427;28;20019;-73
2021/11/15 05:39:14;;;;;;;3.97;1.00;;;23.00;41.50;;;;;;4976703;28;20034;-69
2021/11/15 05:41:41;;;;;;;6.88;1.38;;;23.00;42.10;;;;;;4983224;28;20030;-67
2021/11/15 05:44:09;;;;;;;4.85;0.80;;;23.00;41.80;;;;;;4985966;28;20027;-71
2021/11/15 05:46:35;;;;;;;2.45;0.90;;;22.90;40.90;;;;;;4986006;28;20058;-66
2021/11/15 05:49:03;;;;;;;4.95;1.40;;;22.90;41.80;;;;;;4985635;28;20065;-66
2021/11/15 05:51:30;;;;;;;2.13;0.80;;;22.90;41.10;;;;;;4973272;28;20579;-63
2021/11/15 05:53:58;;;;;;;4.55;0.80;;;22.80;42.10;;;;;;4985064;28;20620;-66
2021/11/15 05:56:25;;;;;;;5.22;1.48;;;22.70;42.00;;;;;;4980688;28;20025;-64
2021/11/15 05:58:52;;;;;;;4.05;1.30;;;22.40;42.80;;;;;;4983620;28;20034;-63
2021/11/15 06:01:19;;;;;;;2.17;0.90;;;22.00;43.10;;;;;;4965882;28;20030;-64
2021/11/15 06:03:46;;;;;;;1.98;0.82;;;22.30;42.80;;;;;;4981583;28;20088;-67
2021/11/15 06:06:13;;;;;;;2.95;0.90;;;22.60;43.10;;;;;;4982472;28;20026;-63
2021/11/15 06:08:40;;;;;;;2.83;1.02;;;22.80;42.50;;;;;;4977458;28;20030;-63
2021/11/15 06:11:07;;;;;;;5.45;2.17;;;22.10;42.70;;;;;;4976904;28;20100;-68
2021/11/15 06:13:34;;;;;;;4.22;1.23;;;21.60;43.70;;;;;;4978142;28;20659;-66
2021/11/15 06:16:01;;;;;;;3.42;1.00;;;21.40;43.70;;;;;;4975656;28;20105;-66
2021/11/15 06:18:28;;;;;;;2.45;0.88;;;21.10;45.00;;;;;;4980723;28;20022;-64
2021/11/15 06:20:55;;;;;;;1.85;0.77;;;21.10;44.80;;;;;;4984009;28;20433;-66
2021/11/15 06:23:22;;;;;;;1.73;0.75;;;20.80;45.10;;;;;;4981564;28;20060;-64
2021/11/15 06:25:50;;;;;;;2.83;1.00;;;20.60;45.70;;;;;;4983777;28;20034;-65
2021/11/15 06:28:17;;;;;;;6.05;0.90;;;20.40;46.10;;;;;;4975351;28;20515;-64
2021/11/15 06:30:44;;;;;;;1.58;0.80;;;20.20;46.10;;;;;;4983830;28;20258;-66
2021/11/15 06:33:11;;;;;;;3.40;0.70;;;20.00;46.30;;;;;;4978350;28;20389;-65
2021/11/15 06:35:38;;;;;;;2.95;1.00;;;20.60;46.00;;;;;;4977347;28;20030;-68
2021/11/15 06:38:05;;;;;;;3.85;0.80;;;21.60;44.50;;;;;;4975059;28;20039;-65
2021/11/15 06:40:32;;;;;;;4.97;0.98;;;22.50;42.80;;;;;;4979659;28;20104;-66
2021/11/15 06:42:59;;;;;;;2.97;0.85;;;21.80;44.00;;;;;;4980557;28;20034;-64
2021/11/15 06:45:26;;;;;;;8.27;1.73;;;20.90;45.40;;;;;;4979472;28;20076;-66
2021/11/15 06:47:54;;;;;;;5.82;0.95;;;20.40;45.60;;;;;;4983348;28;20071;-68
2021/11/15 06:50:22;;;;;;;1.42;0.65;;;20.10;46.70;;;;;;4978871;28;20627;-68
2021/11/15 06:52:50;;;;;;;3.70;0.50;;;19.80;46.50;;;;;;4978431;28;20150;-64
2021/11/15 06:55:19;;;;;;;3.85;1.02;;;19.30;47.30;;;;;;5003140;23;20067;-63
2021/11/15 06:57:47;;;;;;;8.27;1.00;;;19.10;48.00;;;;;;4967920;28;20042;-69
2021/11/15 07:00:18;;;;;;;3.63;0.90;;;19.10;47.60;;;;;;4972256;28;20042;-66
2021/11/15 07:02:46;;;;;;;2.42;0.70;;;18.90;47.90;;;;;;4967982;28;20026;-64
2021/11/15 07:05:15;;;;;;;4.65;1.08;;;19.00;48.80;;;;;;4967489;28;20031;-65
2021/11/15 07:07:43;;;;;;;6.05;1.13;;;19.00;48.60;;;;;;4965444;28;20039;-68
2021/11/15 07:10:11;;;;;;;4.13;0.95;;;18.90;49.30;;;;;;4968535;28;20126;-69
2021/11/15 07:12:39;;;;;;;3.85;1.05;;;19.00;49.30;;;;;;4950623;28;20029;-67
2021/11/15 07:15:08;;;;;;;1.65;0.60;;;19.00;48.80;;;;;;4966424;28;20390;-66
2021/11/15 07:17:35;;;;;;;4.18;1.33;;;19.00;48.90;;;;;;4971392;28;20030;-65
2021/11/15 07:20:03;;;;;;;2.78;0.95;;;19.10;49.50;;;;;;4971090;28;20035;-67
2021/11/15 07:22:30;;;;;;;3.47;1.10;;;19.10;49.00;;;;;;4969641;28;20334;-69
2021/11/15 07:24:58;;;;;;;4.10;1.80;;;19.00;49.00;;;;;;4965108;28;20043;-68
2021/11/15 07:27:25;;;;;;;3.70;1.02;;;19.10;49.10;;;;;;4968293;28;20747;-67
2021/11/15 07:29:53;;;;;;;3.25;1.80;;;19.20;49.00;;;;;;4965894;28;20536;-66
2021/11/15 07:32:20;;;;;;;5.43;2.78;;;19.20;49.20;;;;;;4967859;28;20022;-66
2021/11/15 07:34:47;;;;;;;6.57;2.92;;;19.20;50.30;;;;;;4964342;28;20034;-67
2021/11/15 07:37:14;;;;;;;2.70;0.98;;;19.30;50.20;;;;;;4967376;28;20101;-66
2021/11/15 07:39:44;;;;;;;1.88;0.80;;;19.20;48.60;;;;;;4965760;28;20027;-67
2021/11/15 07:42:16;;;;;;;2.45;1.42;;;19.00;50.30;;;;;;4963384;28;20038;-64
2021/11/15 07:44:44;;;;;;;2.47;0.73;;;19.00;49.70;;;;;;4963217;28;20127;-63
2021/11/15 07:47:16;;;;;;;3.15;0.88;;;18.90;48.90;;;;;;4946687;28;20026;-65
2021/11/15 07:49:45;;;;;;;3.10;0.80;;;18.80;48.70;;;;;;4964403;28;20799;-68
2021/11/15 07:52:12;;;;;;;1.83;0.70;;;18.60;48.50;;;;;;4968204;28;20038;-68
2021/11/15 07:54:39;;;;;;;2.03;1.05;;;18.60;49.50;;;;;;4964200;28;20055;-69
2021/11/15 07:57:08;;;;;;;3.92;0.90;;;18.70;49.70;;;;;;4965353;28;20042;-66
2021/11/15 07:59:36;;;;;;;2.30;1.00;;;18.80;49.70;;;;;;4950041;28;20038;-66
2021/11/15 08:02:06;;;;;;;3.63;1.10;;;18.80;49.40;;;;;;4959579;28;20047;-69
2021/11/15 08:04:34;;;;;;;3.17;0.98;;;18.70;49.90;;;;;;4969139;28;20046;-69
2021/11/15 08:07:01;;;;;;;2.13;0.70;;;18.70;50.40;;;;;;4965905;28;20023;-68
2021/11/15 08:09:29;;;;;;;2.60;1.40;;;18.80;49.30;;;;;;4962792;28;20034;-69
2021/11/15 08:12:03;;;;;;;10.98;5.47;;;18.70;50.10;;;;;;4967992;28;20581;-64
2021/11/15 08:14:30;;;;;;;2.00;1.08;;;18.60;49.90;;;;;;4957187;28;20019;-65
2021/11/15 08:16:57;;;;;;;2.15;0.70;;;18.40;51.20;;;;;;4960374;28;20033;-64
2021/11/15 08:19:24;;;;;;;2.85;1.00;;;18.30;51.00;;;;;;4964177;28;20026;-63
2021/11/15 08:21:52;;;;;;;3.00;1.08;;;18.30;51.80;;;;;;4966148;28;20026;-65
2021/11/15 08:24:25;;;;;;;1.98;0.90;;;18.20;52.00;;;;;;4961542;28;20027;-69
2021/11/15 08:27:00;;;;;;;2.37;0.70;;;18.20;52.00;;;;;;4960547;28;20482;-69
2021/11/15 08:29:30;;;;;;;2.05;0.63;;;18.20;52.20;;;;;;4965185;28;20078;-64
2021/11/15 08:32:03;;;;;;;2.15;0.60;;;18.10;51.20;;;;;;4953307;28;20098;-67
2021/11/15 08:34:30;;;;;;;1.60;0.65;;;18.00;51.70;;;;;;4958019;28;20150;-70
2021/11/15 08:36:57;;;;;;;4.05;1.05;;;17.90;51.70;;;;;;4952267;28;20042;-66
2021/11/15 08:39:29;;;;;;;4.18;1.30;;;17.90;51.50;;;;;;4961605;28;20023;-68
2021/11/15 08:42:03;;;;;;;2.88;0.70;;;17.70;53.00;;;;;;4961885;28;20027;-70
2021/11/15 08:44:32;;;;;;;1.52;0.73;;;17.60;52.10;;;;;;4959780;28;20390;-68
2021/11/15 08:47:00;;;;;;;3.28;0.70;;;17.60;51.90;;;;;;4954530;28;20792;-70
2021/11/15 08:49:29;;;;;;;2.22;0.88;;;17.50;52.70;;;;;;4957696;28;20037;-69
2021/11/15 08:51:58;;;;;;;2.30;0.70;;;17.40;52.40;;;;;;4962949;28;20467;-66
2021/11/15 08:54:27;;;;;;;0.55;0.45;;;17.40;53.60;;;;;;4962497;28;20141;-68
2021/11/15 08:57:04;;;;;;;2.85;0.60;;;17.30;52.40;;;;;;4958200;28;20490;-69
2021/11/15 08:59:32;;;;;;;2.47;0.55;;;17.30;52.40;;;;;;4961980;28;20019;-66
2021/11/15 09:02:00;;;;;;;2.45;0.70;;;17.20;52.90;;;;;;4962850;28;20102;-69
2021/11/15 09:04:27;;;;;;;1.20;0.60;;;17.20;52.80;;;;;;4959667;28;20033;-69
2021/11/15 09:06:54;;;;;;;5.10;0.70;;;17.20;53.50;;;;;;4962422;28;20342;-66
2021/11/15 09:09:27;;;;;;;1.02;0.45;;;17.10;53.60;;;;;;4944318;28;20105;-67
2021/11/15 09:11:55;;;;;;;3.63;0.47;;;17.10;52.90;;;;;;4960709;28;20057;-67
2021/11/15 09:14:23;;;;;;;2.97;0.50;;;17.00;53.90;;;;;;4962585;28;20035;-67
2021/11/15 09:16:51;;;;;;;1.75;0.73;;;17.00;53.70;;;;;;4962999;28;20428;-70
2021/11/15 09:19:20;;;;;;;3.72;1.00;;;17.00;53.60;;;;;;4960647;28;20572;-69
2021/11/15 09:21:47;;;;;;;1.42;0.50;;;17.00;55.40;;;;;;4961493;28;20031;-65
2021/11/15 09:24:15;;;;;;;1.95;0.70;;;17.00;53.30;;;;;;4959257;28;20532;-68
2021/11/15 09:26:44;;;;;;;2.17;0.73;;;17.00;54.10;;;;;;4960774;28;20023;-65
2021/11/15 09:29:12;;;;;;;1.42;0.60;;;17.00;53.70;;;;;;4951002;28;20050;-71
2021/11/15 09:31:40;;;;;;;2.70;0.77;;;17.10;53.70;;;;;;4955882;28;20069;-69
2021/11/15 09:34:07;;;;;;;1.40;0.93;;;17.20;53.70;;;;;;4960718;28;20042;-65
2021/11/15 09:36:34;;;;;;;2.95;0.75;;;17.20;55.00;;;;;;4955660;28;20026;-63
2021/11/15 09:39:03;;;;;;;1.88;0.70;;;17.30;55.00;;;;;;4960853;28;20100;-69
2021/11/15 09:41:30;;;;;;;3.40;1.02;;;17.20;54.70;;;;;;4940961;28;20073;-64
2021/11/15 09:43:57;;;;;;;2.58;0.70;;;17.20;54.70;;;;;;4958891;28;20038;-68
2021/11/15 09:46:27;;;;;;;1.35;0.93;;;17.20;54.60;;;;;;4960808;28;20034;-68
2021/11/15 09:49:04;;;;;;;2.47;0.60;;;17.20;53.90;;;;;;4961405;28;20101;-68
2021/11/15 09:51:32;;;;;;;2.08;0.65;;;17.10;55.80;;;;;;4961370;28;20106;-68
2021/11/15 09:54:02;;;;;;;1.75;0.68;;;17.00;54.80;;;;;;4957610;28;20125;-65
2021/11/15 09:56:29;;;;;;;4.72;1.83;;;17.00;56.20;;;;;;4956140;28;20437;-70
2021/11/15 09:58:56;;;;;;;3.92;1.33;;;17.00;55.60;;;;;;4959403;28;20026;-70
2021/11/15 10:01:24;;;;;;;2.92;1.02;;;17.00;57.60;;;;;;4954243;28;20467;-65
2021/11/15 10:03:52;;;;;;;4.57;2.08;;;17.00;56.40;;;;;;4956290;28;20503;-69
2021/11/15 10:06:22;;;;;;;5.07;1.90;;;17.00;56.50;;;;;;4956322;28;20031;-72
2021/11/15 10:08:51;;;;;;;2.20;0.85;;;17.10;56.70;;;;;;4960339;28;20401;-68
2021/11/15 10:11:21;;;;;;;2.80;1.40;;;17.10;57.40;;;;;;4961494;28;20033;-68
2021/11/15 10:13:51;;;;;;;3.50;1.15;;;17.00;56.90;;;;;;4953337;28;20035;-71
2021/11/15 10:16:20;;;;;;;4.18;1.00;;;16.90;58.30;;;;;;4950695;28;20193;-68
2021/11/15 10:19:00;;;;;;;1.33;0.82;;;17.00;58.50;;;;;;4954646;28;20069;-70
2021/11/15 10:21:57;;;;;;;2.15;0.80;;;16.80;58.80;;;;;;4956331;28;20205;-70
2021/11/15 10:24:34;;;;;;;3.15;0.60;;;16.70;58.80;;;;;;4960495;28;20086;-67
2021/11/15 10:27:18;;;;;;;1.63;0.70;;;16.70;58.60;;;;;;4958364;28;20037;-71
2021/11/15 10:29:49;;;;;;;2.65;0.75;;;16.60;60.00;;;;;;4950700;28;20431;-71
2021/11/15 10:32:23;;;;;;;0.57;0.50;;;16.50;58.80;;;;;;4960418;28;20110;-67
2021/11/15 10:34:55;;;;;;;2.28;0.82;;;16.60;59.90;;;;;;4960536;28;20127;-68
2021/11/15 10:37:27;;;;;;;2.85;0.70;;;16.60;61.40;;;;;;4965083;28;20037;-71
2021/11/15 10:40:00;;;;;;;1.10;0.50;;;16.60;61.60;;;;;;4963988;28;20101;-70
2021/11/15 10:42:50;;;;;;;2.65;0.73;;;16.50;59.40;;;;;;4963354;28;20429;-69
2021/11/15 10:45:20;;;;;;;1.58;0.60;;;16.30;58.40;;;;;;4962786;28;20360;-67
2021/11/15 10:47:55;;;;;;;1.27;0.70;;;16.10;58.80;;;;;;4963780;28;20030;-66
2021/11/15 10:50:44;;;;;;;2.33;0.65;;;15.90;59.50;;;;;;4963051;28;20026;-66
2021/11/15 10:53:24;;;;;;;1.75;0.57;;;15.90;59.80;;;;;;4965268;28;20122;-67
2021/11/15 10:56:15;;;;;;;2.65;0.77;;;15.80;60.20;;;;;;4964925;28;20041;-70
2021/11/15 10:58:51;;;;;;;2.17;1.08;;;15.80;60.90;;;;;;4967253;28;20482;-67
2021/11/15 11:01:20;;;;;;;3.65;0.80;;;15.90;60.50;;;;;;4966930;28;20121;-71
2021/11/15 11:03:47;;;;;;;2.10;0.60;;;15.80;60.80;;;;;;4962448;28;20035;-69
2021/11/15 11:06:16;;;;;;;1.40;0.55;;;15.90;60.80;;;;;;4964495;28;20031;-69
2021/11/15 11:08:45;;;;;;;1.35;0.50;;;15.80;60.60;;;;;;4968129;28;20086;-67
2021/11/15 11:11:17;;;;;;;2.10;0.60;;;15.80;61.20;;;;;;4966421;28;20113;-67
2021/11/15 11:13:57;;;;;;;3.90;0.93;;;15.80;61.10;;;;;;4969696;28;20066;-67
2021/11/15 11:16:49;;;;;;;3.08;0.57;;;15.80;61.50;;;;;;4964038;28;20026;-71
2021/11/15 11:27:14;;;;;;;2.80;0.68;;;15.80;61.20;;;;;;4968182;28;20054;-66
2021/11/15 11:29:52;;;;;;;2.85;0.90;;;15.90;61.60;;;;;;4967918;28;20037;-67
2021/11/15 11:32:22;;;;;;;1.88;0.98;;;15.90;61.40;;;;;;4966396;28;20101;-71
2021/11/15 11:34:50;;;;;;;4.93;0.82;;;15.90;61.40;;;;;;4968895;28;20025;-71
2021/11/15 11:37:21;;;;;;;1.90;0.93;;;15.80;62.20;;;;;;4971059;28;20038;-66
2021/11/15 11:39:48;;;;;;;2.95;0.63;;;15.80;62.20;;;;;;4968775;28;20038;-67
2021/11/15 11:42:16;;;;;;;1.20;0.60;;;15.80;62.10;;;;;;4970783;28;20042;-71
2021/11/15 11:44:45;;;;;;;2.20;0.95;;;15.80;62.30;;;;;;4969901;28;20362;-67
2021/11/15 11:47:15;;;;;;;2.50;0.70;;;15.80;63.50;;;;;;4963301;28;20038;-67
2021/11/15 11:49:45;;;;;;;2.20;0.73;;;15.80;62.60;;;;;;4962799;28;20081;-67
2021/11/15 11:52:14;;;;;;;2.70;1.02;;;15.80;62.60;;;;;;4971628;28;20019;-67
2021/11/15 11:54:48;;;;;;;3.15;1.17;;;15.90;62.30;;;;;;4967130;28;20047;-66
2021/11/15 11:57:24;;;;;;;1.77;0.70;;;15.90;62.40;;;;;;4967694;28;20034;-69
2021/11/15 11:59:51;;;;;;;2.70;0.60;;;15.80;62.50;;;;;;4969542;28;20022;-67
2021/11/15 12:02:22;;;;;;;1.48;0.80;;;15.80;63.00;;;;;;4967113;28;20027;-69
2021/11/15 12:04:53;;;;;;;1.85;0.70;;;15.90;63.00;;;;;;4965563;28;20556;-69
2021/11/15 12:07:51;;;;;;;1.80;0.60;;;15.90;63.10;;;;;;4969472;28;20041;-67
2021/11/15 12:10:46;;;;;;;2.20;0.70;;;15.90;62.90;;;;;;4969364;28;20077;-69
2021/11/15 12:13:21;;;;;;;2.25;0.80;;;15.90;62.90;;;;;;4965635;28;20105;-70
2021/11/15 12:16:02;;;;;;;1.42;0.60;;;15.90;62.90;;;;;;4962632;28;20023;-67
2021/11/15 12:18:52;;;;;;;1.73;0.70;;;15.90;63.40;;;;;;4966301;28;20344;-68
2021/11/15 12:21:22;;;;;;;0.75;0.40;;;15.90;64.10;;;;;;4971089;28;20041;-67
2021/11/15 12:23:52;;;;;;;1.70;0.68;;;15.90;66.20;;;;;;4970957;28;20122;-66
2021/11/15 12:26:36;;;;;;;2.40;0.70;;;15.80;65.50;;;;;;4964265;28;20066;-69
2021/11/15 12:29:36;;;;;;;2.38;0.82;;;15.80;65.50;;;;;;4966211;28;20398;-67
2021/11/15 12:32:08;;;;;;;1.35;0.70;;;15.80;65.50;;;;;;4963618;28;20050;-67
2021/11/15 12:34:54;;;;;;;1.27;0.55;;;15.70;66.10;;;;;;4959013;28;20105;-68
2021/11/15 12:37:35;;;;;;;1.65;0.55;;;15.70;65.10;;;;;;4968880;28;20544;-67
2021/11/15 12:40:03;;;;;;;1.52;0.50;;;15.80;65.40;;;;;;4957142;28;20082;-69
2021/11/15 12:42:30;;;;;;;1.08;0.60;;;15.80;64.40;;;;;;4964146;28;20401;-68
2021/11/15 12:45:18;;;;;;;2.25;0.63;;;15.80;65.50;;;;;;4970739;28;20138;-67
2021/11/15 12:47:47;;;;;;;2.85;0.50;;;15.70;66.60;;;;;;4965213;28;20038;-68
2021/11/15 12:50:18;;;;;;;1.10;0.60;;;15.50;69.90;;;;;;4969206;28;20385;-69
2021/11/15 12:52:53;;;;;;;2.40;0.57;;;15.40;69.70;;;;;;4962746;28;20498;-69
2021/11/15 12:55:21;;;;;;;1.33;0.55;;;15.40;69.30;;;;;;4961461;28;20035;-67
2021/11/15 12:57:57;;;;;;;3.42;0.50;;;15.40;69.60;;;;;;4966926;28;20035;-68
2021/11/15 13:00:34;;;;;;;5.50;1.23;;;15.20;70.10;;;;;;4960137;28;20028;-69
2021/11/15 13:03:11;;;;;;;2.28;1.67;;;15.10;71.30;;;;;;4964933;28;20031;-68
2021/11/15 13:05:42;;;;;;;4.18;2.42;;;15.10;71.90;;;;;;4965512;28;20023;-69
2021/11/15 13:08:13;;;;;;;1.15;0.70;;;15.00;71.50;;;;;;4968309;28;20538;-69